sensor_id;sensor_type;location;lat;lon;timestamp;P1;durP1;ratioP1;P2;durP2;ratioP2
84284;SDS011;74441;49.470;11.032;2024-01-06T00:01:43;9.87;;;6.90;;
84284;SDS011;74441;49.470;11.032;2024-01-06T00:04:08;11.23;;;7.73;;
84284;SDS011;74441;49.470;11.032;2024-01-06T00:06:35;9.38;;;7.20;;
84284;SDS011;74441;49.470;11.032;2024-01-06T00:09:00;9.93;;;7.30;;
84284;SDS011;74441;49.470;11.032;2024-01-06T00:11:25;9.88;;;6.70;;
84284;SDS011;74441;49.470;11.032;2024-01-06T00:13:51;9.70;;;7.03;;
84284;SDS011;74441;49.470;11.032;2024-01-06T00:16:17;10.23;;;6.93;;
84284;SDS011;74441;49.470;11.032;2024-01-06T00:18:43;10.68;;;7.45;;
84284;SDS011;74441;49.470;11.032;2024-01-06T00:21:08;10.50;;;6.80;;
84284;SDS011;74441;49.470;11.032;2024-01-06T00:23:34;8.93;;;6.63;;
84284;SDS011;74441;49.470;11.032;2024-01-06T00:25:59;12.33;;;7.07;;
84284;SDS011;74441;49.470;11.032;2024-01-06T00:28:24;9.30;;;7.10;;
84284;SDS011;74441;49.470;11.032;2024-01-06T00:30:50;8.95;;;7.03;;
84284;SDS011;74441;49.470;11.032;2024-01-06T00:33:15;8.90;;;6.80;;
84284;SDS011;74441;49.470;11.032;2024-01-06T00:35:40;21.92;;;14.48;;
84284;SDS011;74441;49.470;11.032;2024-01-06T00:38:05;10.02;;;7.13;;
84284;SDS011;74441;49.470;11.032;2024-01-06T00:40:31;10.73;;;7.38;;
84284;SDS011;74441;49.470;11.032;2024-01-06T00:42:57;11.23;;;7.60;;
84284;SDS011;74441;49.470;11.032;2024-01-06T00:45:23;9.13;;;6.63;;
84284;SDS011;74441;49.470;11.032;2024-01-06T00:47:48;29.43;;;16.13;;
84284;SDS011;74441;49.470;11.032;2024-01-06T00:50:13;11.95;;;8.15;;
84284;SDS011;74441;49.470;11.032;2024-01-06T00:52:39;9.52;;;7.53;;
84284;SDS011;74441;49.470;11.032;2024-01-06T00:55:04;8.70;;;6.93;;
84284;SDS011;74441;49.470;11.032;2024-01-06T00:57:29;11.40;;;8.80;;
84284;SDS011;74441;49.470;11.032;2024-01-06T00:59:55;12.33;;;9.00;;
84284;SDS011;74441;49.470;11.032;2024-01-06T01:02:20;9.75;;;8.10;;
84284;SDS011;74441;49.470;11.032;2024-01-06T01:04:45;11.02;;;8.10;;
84284;SDS011;74441;49.470;11.032;2024-01-06T01:07:11;11.23;;;7.95;;
84284;SDS011;74441;49.470;11.032;2024-01-06T01:09:37;11.70;;;8.13;;
84284;SDS011;74441;49.470;11.032;2024-01-06T01:12:02;9.67;;;7.13;;
84284;SDS011;74441;49.470;11.032;2024-01-06T01:14:27;8.88;;;7.90;;
84284;SDS011;74441;49.470;11.032;2024-01-06T01:16:53;11.20;;;8.40;;
84284;SDS011;74441;49.470;11.032;2024-01-06T01:19:18;11.70;;;7.40;;
84284;SDS011;74441;49.470;11.032;2024-01-06T01:21:43;11.50;;;8.68;;
84284;SDS011;74441;49.470;11.032;2024-01-06T01:24:09;10.10;;;7.87;;
84284;SDS011;74441;49.470;11.032;2024-01-06T01:26:34;11.87;;;9.03;;
84284;SDS011;74441;49.470;11.032;2024-01-06T01:28:59;11.10;;;8.17;;
84284;SDS011;74441;49.470;11.032;2024-01-06T01:31:24;11.07;;;7.90;;
84284;SDS011;74441;49.470;11.032;2024-01-06T01:33:50;11.87;;;8.33;;
84284;SDS011;74441;49.470;11.032;2024-01-06T01:36:15;10.93;;;8.13;;
84284;SDS011;74441;49.470;11.032;2024-01-06T01:38:40;10.35;;;8.07;;
84284;SDS011;74441;49.470;11.032;2024-01-06T01:41:06;10.75;;;7.60;;
84284;SDS011;74441;49.470;11.032;2024-01-06T01:43:31;9.57;;;7.70;;
84284;SDS011;74441;49.470;11.032;2024-01-06T01:45:56;8.90;;;6.77;;
84284;SDS011;74441;49.470;11.032;2024-01-06T01:48:22;8.48;;;6.78;;
84284;SDS011;74441;49.470;11.032;2024-01-06T01:50:48;10.07;;;7.30;;
84284;SDS011;74441;49.470;11.032;2024-01-06T01:53:14;8.55;;;6.15;;
84284;SDS011;74441;49.470;11.032;2024-01-06T01:55:40;10.20;;;6.68;;
84284;SDS011;74441;49.470;11.032;2024-01-06T01:58:06;7.72;;;6.60;;
84284;SDS011;74441;49.470;11.032;2024-01-06T02:00:31;7.88;;;6.45;;
84284;SDS011;74441;49.470;11.032;2024-01-06T02:02:57;10.53;;;6.70;;
84284;SDS011;74441;49.470;11.032;2024-01-06T02:05:24;6.90;;;5.75;;
84284;SDS011;74441;49.470;11.032;2024-01-06T02:07:49;8.43;;;6.50;;
84284;SDS011;74441;49.470;11.032;2024-01-06T02:10:16;9.35;;;6.30;;
84284;SDS011;74441;49.470;11.032;2024-01-06T02:12:41;7.93;;;6.25;;
84284;SDS011;74441;49.470;11.032;2024-01-06T02:15:06;8.83;;;5.90;;
84284;SDS011;74441;49.470;11.032;2024-01-06T02:17:32;7.00;;;5.93;;
84284;SDS011;74441;49.470;11.032;2024-01-06T02:19:57;7.73;;;5.97;;
84284;SDS011;74441;49.470;11.032;2024-01-06T02:22:22;8.20;;;6.30;;
84284;SDS011;74441;49.470;11.032;2024-01-06T02:24:48;7.60;;;5.63;;
84284;SDS011;74441;49.470;11.032;2024-01-06T02:27:14;6.57;;;5.67;;
84284;SDS011;74441;49.470;11.032;2024-01-06T02:29:39;8.45;;;6.10;;
84284;SDS011;74441;49.470;11.032;2024-01-06T02:32:04;10.07;;;6.27;;
84284;SDS011;74441;49.470;11.032;2024-01-06T02:34:30;7.68;;;5.60;;
84284;SDS011;74441;49.470;11.032;2024-01-06T02:36:56;7.55;;;5.70;;
84284;SDS011;74441;49.470;11.032;2024-01-06T02:39:21;7.20;;;5.80;;
84284;SDS011;74441;49.470;11.032;2024-01-06T02:41:48;6.72;;;5.40;;
84284;SDS011;74441;49.470;11.032;2024-01-06T02:44:14;8.53;;;6.27;;
84284;SDS011;74441;49.470;11.032;2024-01-06T02:46:39;6.60;;;5.90;;
84284;SDS011;74441;49.470;11.032;2024-01-06T02:49:04;9.23;;;6.43;;
84284;SDS011;74441;49.470;11.032;2024-01-06T02:51:30;7.23;;;6.00;;
84284;SDS011;74441;49.470;11.032;2024-01-06T02:53:55;9.50;;;6.20;;
84284;SDS011;74441;49.470;11.032;2024-01-06T02:56:21;7.90;;;5.80;;
84284;SDS011;74441;49.470;11.032;2024-01-06T02:58:46;7.32;;;5.55;;
84284;SDS011;74441;49.470;11.032;2024-01-06T03:01:11;8.18;;;5.40;;
84284;SDS011;74441;49.470;11.032;2024-01-06T03:03:37;6.85;;;5.72;;
84284;SDS011;74441;49.470;11.032;2024-01-06T03:06:02;8.38;;;5.45;;
84284;SDS011;74441;49.470;11.032;2024-01-06T03:08:27;5.40;;;4.85;;
84284;SDS011;74441;49.470;11.032;2024-01-06T03:10:53;8.43;;;5.33;;
84284;SDS011;74441;49.470;11.032;2024-01-06T03:13:18;8.68;;;5.57;;
84284;SDS011;74441;49.470;11.032;2024-01-06T03:15:43;6.63;;;4.80;;
84284;SDS011;74441;49.470;11.032;2024-01-06T03:18:09;6.93;;;5.10;;
84284;SDS011;74441;49.470;11.032;2024-01-06T03:20:34;7.13;;;5.22;;
84284;SDS011;74441;49.470;11.032;2024-01-06T03:23:00;7.13;;;5.35;;
84284;SDS011;74441;49.470;11.032;2024-01-06T03:25:25;7.37;;;5.23;;
84284;SDS011;74441;49.470;11.032;2024-01-06T03:27:50;6.30;;;4.73;;
84284;SDS011;74441;49.470;11.032;2024-01-06T03:30:15;7.27;;;5.60;;
84284;SDS011;74441;49.470;11.032;2024-01-06T03:32:41;6.77;;;4.80;;
84284;SDS011;74441;49.470;11.032;2024-01-06T03:35:06;6.97;;;5.13;;
84284;SDS011;74441;49.470;11.032;2024-01-06T03:37:32;6.75;;;4.75;;
84284;SDS011;74441;49.470;11.032;2024-01-06T03:39:58;8.00;;;5.28;;
84284;SDS011;74441;49.470;11.032;2024-01-06T03:42:23;5.97;;;4.47;;
84284;SDS011;74441;49.470;11.032;2024-01-06T03:44:48;6.47;;;4.90;;
84284;SDS011;74441;49.470;11.032;2024-01-06T03:47:14;7.40;;;4.97;;
84284;SDS011;74441;49.470;11.032;2024-01-06T03:49:39;5.88;;;4.68;;
84284;SDS011;74441;49.470;11.032;2024-01-06T03:52:04;6.43;;;4.43;;
84284;SDS011;74441;49.470;11.032;2024-01-06T03:54:30;7.43;;;5.05;;
84284;SDS011;74441;49.470;11.032;2024-01-06T03:56:55;6.17;;;4.70;;
84284;SDS011;74441;49.470;11.032;2024-01-06T03:59:20;6.40;;;5.00;;
84284;SDS011;74441;49.470;11.032;2024-01-06T04:01:45;6.77;;;4.63;;
84284;SDS011;74441;49.470;11.032;2024-01-06T04:04:11;5.63;;;4.50;;
84284;SDS011;74441;49.470;11.032;2024-01-06T04:06:36;5.68;;;4.63;;
84284;SDS011;74441;49.470;11.032;2024-01-06T04:09:01;6.30;;;4.53;;
84284;SDS011;74441;49.470;11.032;2024-01-06T04:11:27;5.55;;;4.30;;
84284;SDS011;74441;49.470;11.032;2024-01-06T04:13:52;6.73;;;4.60;;
84284;SDS011;74441;49.470;11.032;2024-01-06T04:16:18;5.47;;;4.70;;
84284;SDS011;74441;49.470;11.032;2024-01-06T04:18:43;5.85;;;4.55;;
84284;SDS011;74441;49.470;11.032;2024-01-06T04:21:08;7.33;;;4.70;;
84284;SDS011;74441;49.470;11.032;2024-01-06T04:23:34;5.67;;;4.53;;
84284;SDS011;74441;49.470;11.032;2024-01-06T04:25:59;6.57;;;4.70;;
84284;SDS011;74441;49.470;11.032;2024-01-06T04:28:25;6.50;;;4.65;;
84284;SDS011;74441;49.470;11.032;2024-01-06T04:30:50;5.73;;;4.50;;
84284;SDS011;74441;49.470;11.032;2024-01-06T04:33:16;5.75;;;4.40;;
84284;SDS011;74441;49.470;11.032;2024-01-06T04:35:41;6.60;;;4.53;;
84284;SDS011;74441;49.470;11.032;2024-01-06T04:38:06;5.83;;;4.47;;
84284;SDS011;74441;49.470;11.032;2024-01-06T04:40:32;7.07;;;4.18;;
84284;SDS011;74441;49.470;11.032;2024-01-06T04:42:57;6.22;;;4.35;;
84284;SDS011;74441;49.470;11.032;2024-01-06T04:45:22;6.03;;;4.13;;
84284;SDS011;74441;49.470;11.032;2024-01-06T04:47:51;6.25;;;4.47;;
84284;SDS011;74441;49.470;11.032;2024-01-06T04:50:16;5.70;;;4.38;;
84284;SDS011;74441;49.470;11.032;2024-01-06T04:52:42;5.57;;;4.40;;
84284;SDS011;74441;49.470;11.032;2024-01-06T04:55:07;5.63;;;4.30;;
84284;SDS011;74441;49.470;11.032;2024-01-06T04:57:33;5.47;;;4.67;;
84284;SDS011;74441;49.470;11.032;2024-01-06T04:59:58;5.32;;;4.20;;
84284;SDS011;74441;49.470;11.032;2024-01-06T05:02:24;6.43;;;4.45;;
84284;SDS011;74441;49.470;11.032;2024-01-06T05:04:50;5.65;;;4.10;;
84284;SDS011;74441;49.470;11.032;2024-01-06T05:07:15;5.87;;;4.53;;
84284;SDS011;74441;49.470;11.032;2024-01-06T05:09:41;7.33;;;4.77;;
84284;SDS011;74441;49.470;11.032;2024-01-06T05:12:06;5.95;;;4.63;;
84284;SDS011;74441;49.470;11.032;2024-01-06T05:14:32;6.22;;;4.60;;
84284;SDS011;74441;49.470;11.032;2024-01-06T05:16:57;5.33;;;4.50;;
84284;SDS011;74441;49.470;11.032;2024-01-06T05:19:22;5.90;;;4.22;;
84284;SDS011;74441;49.470;11.032;2024-01-06T05:21:48;6.75;;;4.25;;
84284;SDS011;74441;49.470;11.032;2024-01-06T05:24:13;5.57;;;4.25;;
84284;SDS011;74441;49.470;11.032;2024-01-06T05:26:39;5.67;;;4.40;;
84284;SDS011;74441;49.470;11.032;2024-01-06T05:29:05;5.82;;;4.38;;
84284;SDS011;74441;49.470;11.032;2024-01-06T05:31:30;6.07;;;3.90;;
84284;SDS011;74441;49.470;11.032;2024-01-06T05:33:55;5.30;;;3.97;;
84284;SDS011;74441;49.470;11.032;2024-01-06T05:36:20;6.63;;;4.87;;
84284;SDS011;74441;49.470;11.032;2024-01-06T05:38:46;5.30;;;4.23;;
84284;SDS011;74441;49.470;11.032;2024-01-06T05:41:11;6.43;;;4.15;;
84284;SDS011;74441;49.470;11.032;2024-01-06T05:43:36;5.95;;;4.70;;
84284;SDS011;74441;49.470;11.032;2024-01-06T05:46:02;5.47;;;4.00;;
84284;SDS011;74441;49.470;11.032;2024-01-06T05:48:27;5.88;;;4.10;;
84284;SDS011;74441;49.470;11.032;2024-01-06T05:50:52;5.10;;;4.13;;
84284;SDS011;74441;49.470;11.032;2024-01-06T05:53:18;6.87;;;4.23;;
84284;SDS011;74441;49.470;11.032;2024-01-06T05:55:43;5.70;;;4.35;;
84284;SDS011;74441;49.470;11.032;2024-01-06T05:58:09;7.00;;;4.68;;
84284;SDS011;74441;49.470;11.032;2024-01-06T06:00:34;5.97;;;4.17;;
84284;SDS011;74441;49.470;11.032;2024-01-06T06:02:59;4.67;;;4.03;;
84284;SDS011;74441;49.470;11.032;2024-01-06T06:05:24;4.83;;;3.93;;
84284;SDS011;74441;49.470;11.032;2024-01-06T06:07:50;5.13;;;3.92;;
84284;SDS011;74441;49.470;11.032;2024-01-06T06:10:15;6.18;;;3.72;;
84284;SDS011;74441;49.470;11.032;2024-01-06T06:12:41;4.65;;;3.70;;
84284;SDS011;74441;49.470;11.032;2024-01-06T06:15:06;5.20;;;3.95;;
84284;SDS011;74441;49.470;11.032;2024-01-06T06:17:32;5.15;;;3.78;;
84284;SDS011;74441;49.470;11.032;2024-01-06T06:19:58;5.40;;;3.80;;
84284;SDS011;74441;49.470;11.032;2024-01-06T06:22:24;5.82;;;4.60;;
84284;SDS011;74441;49.470;11.032;2024-01-06T06:24:51;5.95;;;4.28;;
84284;SDS011;74441;49.470;11.032;2024-01-06T06:27:17;5.80;;;3.60;;
84284;SDS011;74441;49.470;11.032;2024-01-06T06:29:42;4.70;;;4.10;;
84284;SDS011;74441;49.470;11.032;2024-01-06T06:32:08;6.23;;;3.80;;
84284;SDS011;74441;49.470;11.032;2024-01-06T06:34:33;4.77;;;3.70;;
84284;SDS011;74441;49.470;11.032;2024-01-06T06:36:58;5.87;;;4.23;;
84284;SDS011;74441;49.470;11.032;2024-01-06T06:39:24;5.25;;;3.63;;
84284;SDS011;74441;49.470;11.032;2024-01-06T06:41:49;7.50;;;3.88;;
84284;SDS011;74441;49.470;11.032;2024-01-06T06:44:14;6.35;;;4.28;;
84284;SDS011;74441;49.470;11.032;2024-01-06T06:46:39;5.20;;;3.90;;
84284;SDS011;74441;49.470;11.032;2024-01-06T06:49:05;4.72;;;3.55;;
84284;SDS011;74441;49.470;11.032;2024-01-06T06:51:30;5.57;;;3.78;;
84284;SDS011;74441;49.470;11.032;2024-01-06T06:53:55;5.18;;;3.92;;
84284;SDS011;74441;49.470;11.032;2024-01-06T06:56:21;5.60;;;4.10;;
84284;SDS011;74441;49.470;11.032;2024-01-06T06:58:47;4.75;;;3.75;;
84284;SDS011;74441;49.470;11.032;2024-01-06T07:01:15;4.20;;;3.80;;
84284;SDS011;74441;49.470;11.032;2024-01-06T07:03:41;5.60;;;4.43;;
84284;SDS011;74441;49.470;11.032;2024-01-06T07:06:06;4.82;;;3.83;;
84284;SDS011;74441;49.470;11.032;2024-01-06T07:08:31;4.73;;;4.00;;
84284;SDS011;74441;49.470;11.032;2024-01-06T07:10:57;4.87;;;3.73;;
84284;SDS011;74441;49.470;11.032;2024-01-06T07:13:22;4.60;;;3.33;;
84284;SDS011;74441;49.470;11.032;2024-01-06T07:15:47;5.53;;;3.83;;
84284;SDS011;74441;49.470;11.032;2024-01-06T07:18:13;5.07;;;3.67;;
84284;SDS011;74441;49.470;11.032;2024-01-06T07:20:38;6.53;;;4.70;;
84284;SDS011;74441;49.470;11.032;2024-01-06T07:23:03;7.18;;;4.80;;
84284;SDS011;74441;49.470;11.032;2024-01-06T07:25:29;5.72;;;4.18;;
84284;SDS011;74441;49.470;11.032;2024-01-06T07:27:55;6.53;;;4.63;;
84284;SDS011;74441;49.470;11.032;2024-01-06T07:30:20;8.33;;;5.30;;
84284;SDS011;74441;49.470;11.032;2024-01-06T07:32:46;8.43;;;6.53;;
84284;SDS011;74441;49.470;11.032;2024-01-06T07:35:12;6.70;;;5.97;;
84284;SDS011;74441;49.470;11.032;2024-01-06T07:37:38;6.15;;;4.38;;
84284;SDS011;74441;49.470;11.032;2024-01-06T07:40:03;6.20;;;4.53;;
84284;SDS011;74441;49.470;11.032;2024-01-06T07:42:28;5.60;;;4.10;;
84284;SDS011;74441;49.470;11.032;2024-01-06T07:44:54;6.50;;;4.40;;
84284;SDS011;74441;49.470;11.032;2024-01-06T07:47:19;5.43;;;4.50;;
84284;SDS011;74441;49.470;11.032;2024-01-06T07:49:44;5.83;;;4.63;;
84284;SDS011;74441;49.470;11.032;2024-01-06T07:52:11;7.20;;;4.80;;
84284;SDS011;74441;49.470;11.032;2024-01-06T07:54:38;8.57;;;4.53;;
84284;SDS011;74441;49.470;11.032;2024-01-06T07:57:04;7.72;;;4.32;;
84284;SDS011;74441;49.470;11.032;2024-01-06T07:59:29;5.60;;;4.55;;
84284;SDS011;74441;49.470;11.032;2024-01-06T08:01:55;5.77;;;4.03;;
84284;SDS011;74441;49.470;11.032;2024-01-06T08:04:20;5.80;;;4.47;;
84284;SDS011;74441;49.470;11.032;2024-01-06T08:06:45;6.63;;;4.40;;
84284;SDS011;74441;49.470;11.032;2024-01-06T08:09:11;5.17;;;4.20;;
84284;SDS011;74441;49.470;11.032;2024-01-06T08:11:36;4.68;;;3.78;;
84284;SDS011;74441;49.470;11.032;2024-01-06T08:14:01;5.17;;;4.10;;
84284;SDS011;74441;49.470;11.032;2024-01-06T08:16:27;6.03;;;4.03;;
84284;SDS011;74441;49.470;11.032;2024-01-06T08:18:52;5.50;;;3.90;;
84284;SDS011;74441;49.470;11.032;2024-01-06T08:21:17;5.50;;;4.27;;
84284;SDS011;74441;49.470;11.032;2024-01-06T08:23:43;6.85;;;4.22;;
84284;SDS011;74441;49.470;11.032;2024-01-06T08:26:09;5.77;;;4.23;;
84284;SDS011;74441;49.470;11.032;2024-01-06T08:28:34;5.27;;;4.17;;
84284;SDS011;74441;49.470;11.032;2024-01-06T08:30:59;5.97;;;4.40;;
84284;SDS011;74441;49.470;11.032;2024-01-06T08:33:25;6.00;;;4.03;;
84284;SDS011;74441;49.470;11.032;2024-01-06T08:35:50;5.00;;;3.80;;
84284;SDS011;74441;49.470;11.032;2024-01-06T08:38:15;5.25;;;4.18;;
84284;SDS011;74441;49.470;11.032;2024-01-06T08:40:41;6.95;;;4.60;;
84284;SDS011;74441;49.470;11.032;2024-01-06T08:43:06;5.32;;;4.30;;
84284;SDS011;74441;49.470;11.032;2024-01-06T08:45:32;4.97;;;3.83;;
84284;SDS011;74441;49.470;11.032;2024-01-06T08:47:57;5.87;;;4.50;;
84284;SDS011;74441;49.470;11.032;2024-01-06T08:50:22;6.07;;;4.73;;
84284;SDS011;74441;49.470;11.032;2024-01-06T08:52:48;6.00;;;4.53;;
84284;SDS011;74441;49.470;11.032;2024-01-06T08:55:13;6.23;;;4.63;;
84284;SDS011;74441;49.470;11.032;2024-01-06T08:57:38;5.30;;;4.40;;
84284;SDS011;74441;49.470;11.032;2024-01-06T09:00:04;5.93;;;4.50;;
84284;SDS011;74441;49.470;11.032;2024-01-06T09:02:30;6.22;;;4.95;;
84284;SDS011;74441;49.470;11.032;2024-01-06T09:04:55;18.83;;;9.82;;
84284;SDS011;74441;49.470;11.032;2024-01-06T09:07:21;7.33;;;5.43;;
84284;SDS011;74441;49.470;11.032;2024-01-06T09:09:46;7.57;;;5.47;;
84284;SDS011;74441;49.470;11.032;2024-01-06T09:12:11;5.77;;;5.17;;
84284;SDS011;74441;49.470;11.032;2024-01-06T09:14:37;6.25;;;5.50;;
84284;SDS011;74441;49.470;11.032;2024-01-06T09:17:02;6.17;;;5.33;;
84284;SDS011;74441;49.470;11.032;2024-01-06T09:19:29;7.15;;;5.25;;
84284;SDS011;74441;49.470;11.032;2024-01-06T09:21:55;6.80;;;5.22;;
84284;SDS011;74441;49.470;11.032;2024-01-06T09:24:20;7.38;;;4.82;;
84284;SDS011;74441;49.470;11.032;2024-01-06T09:26:46;5.53;;;4.83;;
84284;SDS011;74441;49.470;11.032;2024-01-06T09:29:11;6.05;;;5.15;;
84284;SDS011;74441;49.470;11.032;2024-01-06T09:31:37;7.47;;;5.43;;
84284;SDS011;74441;49.470;11.032;2024-01-06T09:34:02;6.60;;;4.88;;
84284;SDS011;74441;49.470;11.032;2024-01-06T09:36:27;5.43;;;4.90;;
84284;SDS011;74441;49.470;11.032;2024-01-06T09:38:54;7.40;;;4.80;;
84284;SDS011;74441;49.470;11.032;2024-01-06T09:41:20;5.70;;;4.70;;
84284;SDS011;74441;49.470;11.032;2024-01-06T09:43:46;5.85;;;4.70;;
84284;SDS011;74441;49.470;11.032;2024-01-06T09:46:15;7.22;;;4.97;;
84284;SDS011;74441;49.470;11.032;2024-01-06T09:48:43;7.03;;;5.15;;
84284;SDS011;74441;49.470;11.032;2024-01-06T09:51:10;7.90;;;5.40;;
84284;SDS011;74441;49.470;11.032;2024-01-06T09:53:36;6.93;;;5.88;;
84284;SDS011;74441;49.470;11.032;2024-01-06T09:56:05;8.90;;;5.30;;
84284;SDS011;74441;49.470;11.032;2024-01-06T09:58:31;8.98;;;8.07;;
84284;SDS011;74441;49.470;11.032;2024-01-06T10:00:59;6.68;;;5.45;;
84284;SDS011;74441;49.470;11.032;2024-01-06T10:03:25;7.75;;;5.40;;
84284;SDS011;74441;49.470;11.032;2024-01-06T10:05:51;6.88;;;5.50;;
84284;SDS011;74441;49.470;11.032;2024-01-06T10:08:17;8.27;;;6.10;;
84284;SDS011;74441;49.470;11.032;2024-01-06T10:10:44;8.13;;;6.32;;
84284;SDS011;74441;49.470;11.032;2024-01-06T10:13:09;6.22;;;4.85;;
84284;SDS011;74441;49.470;11.032;2024-01-06T10:15:35;6.07;;;5.20;;
84284;SDS011;74441;49.470;11.032;2024-01-06T10:18:01;6.47;;;4.72;;
84284;SDS011;74441;49.470;11.032;2024-01-06T10:20:28;6.10;;;5.13;;
84284;SDS011;74441;49.470;11.032;2024-01-06T10:22:53;6.05;;;5.35;;
84284;SDS011;74441;49.470;11.032;2024-01-06T10:25:19;7.53;;;5.60;;
84284;SDS011;74441;49.470;11.032;2024-01-06T10:27:44;6.50;;;5.33;;
84284;SDS011;74441;49.470;11.032;2024-01-06T10:30:10;6.55;;;5.43;;
84284;SDS011;74441;49.470;11.032;2024-01-06T10:32:35;5.93;;;5.32;;
84284;SDS011;74441;49.470;11.032;2024-01-06T10:35:01;6.32;;;5.03;;
84284;SDS011;74441;49.470;11.032;2024-01-06T10:37:28;5.80;;;5.20;;
84284;SDS011;74441;49.470;11.032;2024-01-06T10:40:07;6.28;;;4.65;;
84284;SDS011;74441;49.470;11.032;2024-01-06T10:42:36;5.05;;;4.53;;
84284;SDS011;74441;49.470;11.032;2024-01-06T10:45:02;6.47;;;5.13;;
84284;SDS011;74441;49.470;11.032;2024-01-06T10:47:28;6.13;;;4.95;;
84284;SDS011;74441;49.470;11.032;2024-01-06T10:49:57;6.03;;;4.78;;
84284;SDS011;74441;49.470;11.032;2024-01-06T10:52:25;5.32;;;4.70;;
84284;SDS011;74441;49.470;11.032;2024-01-06T10:54:52;7.68;;;5.00;;
84284;SDS011;74441;49.470;11.032;2024-01-06T10:57:19;7.25;;;4.93;;
84284;SDS011;74441;49.470;11.032;2024-01-06T10:59:44;7.10;;;5.22;;
84284;SDS011;74441;49.470;11.032;2024-01-06T11:02:10;7.85;;;4.53;;
84284;SDS011;74441;49.470;11.032;2024-01-06T11:04:36;6.25;;;4.90;;
84284;SDS011;74441;49.470;11.032;2024-01-06T11:07:02;5.55;;;4.65;;
84284;SDS011;74441;49.470;11.032;2024-01-06T11:09:29;8.25;;;5.00;;
84284;SDS011;74441;49.470;11.032;2024-01-06T11:11:58;6.80;;;4.88;;
84284;SDS011;74441;49.470;11.032;2024-01-06T11:14:26;7.30;;;4.85;;
84284;SDS011;74441;49.470;11.032;2024-01-06T11:16:53;5.60;;;5.00;;
84284;SDS011;74441;49.470;11.032;2024-01-06T11:24:53;6.18;;;4.80;;
84284;SDS011;74441;49.470;11.032;2024-01-06T11:27:27;7.00;;;4.80;;
84284;SDS011;74441;49.470;11.032;2024-01-06T11:29:56;6.18;;;5.05;;
84284;SDS011;74441;49.470;11.032;2024-01-06T11:32:29;8.13;;;5.63;;
84284;SDS011;74441;49.470;11.032;2024-01-06T11:35:04;11.50;;;7.85;;
84284;SDS011;74441;49.470;11.032;2024-01-06T11:40:09;10.18;;;6.95;;
84284;SDS011;74441;49.470;11.032;2024-01-06T11:42:44;8.38;;;5.03;;
84284;SDS011;74441;49.470;11.032;2024-01-06T11:45:10;7.63;;;5.30;;
84284;SDS011;74441;49.470;11.032;2024-01-06T11:47:35;6.13;;;4.82;;
84284;SDS011;74441;49.470;11.032;2024-01-06T11:50:01;5.97;;;5.10;;
84284;SDS011;74441;49.470;11.032;2024-01-06T11:52:31;6.50;;;4.90;;
84284;SDS011;74441;49.470;11.032;2024-01-06T11:54:56;8.40;;;5.22;;
84284;SDS011;74441;49.470;11.032;2024-01-06T11:57:23;5.38;;;4.38;;
84284;SDS011;74441;49.470;11.032;2024-01-06T11:59:50;6.50;;;5.78;;
84284;SDS011;74441;49.470;11.032;2024-01-06T12:02:17;6.83;;;5.30;;
84284;SDS011;74441;49.470;11.032;2024-01-06T12:04:45;5.95;;;4.82;;
84284;SDS011;74441;49.470;11.032;2024-01-06T12:07:13;6.35;;;4.50;;
84284;SDS011;74441;49.470;11.032;2024-01-06T12:09:40;5.00;;;4.43;;
84284;SDS011;74441;49.470;11.032;2024-01-06T12:12:05;7.68;;;4.20;;
84284;SDS011;74441;49.470;11.032;2024-01-06T12:14:31;6.00;;;4.25;;
84284;SDS011;74441;49.470;11.032;2024-01-06T12:16:58;6.47;;;4.93;;
84284;SDS011;74441;49.470;11.032;2024-01-06T12:19:27;6.53;;;4.90;;
84284;SDS011;74441;49.470;11.032;2024-01-06T12:21:54;4.82;;;4.20;;
84284;SDS011;74441;49.470;11.032;2024-01-06T12:24:20;7.22;;;5.10;;
84284;SDS011;74441;49.470;11.032;2024-01-06T12:26:45;5.40;;;4.75;;
84284;SDS011;74441;49.470;11.032;2024-01-06T12:29:11;5.07;;;4.00;;
84284;SDS011;74441;49.470;11.032;2024-01-06T12:31:38;5.55;;;3.95;;
84284;SDS011;74441;49.470;11.032;2024-01-06T12:34:04;5.95;;;4.05;;
84284;SDS011;74441;49.470;11.032;2024-01-06T12:36:29;4.38;;;3.60;;
84284;SDS011;74441;49.470;11.032;2024-01-06T12:38:55;6.07;;;4.35;;
84284;SDS011;74441;49.470;11.032;2024-01-06T12:41:23;5.28;;;4.10;;
84284;SDS011;74441;49.470;11.032;2024-01-06T12:43:49;6.00;;;3.80;;
84284;SDS011;74441;49.470;11.032;2024-01-06T12:46:14;4.93;;;3.95;;
84284;SDS011;74441;49.470;11.032;2024-01-06T12:48:40;5.15;;;3.80;;
84284;SDS011;74441;49.470;11.032;2024-01-06T12:51:05;5.45;;;4.03;;
84284;SDS011;74441;49.470;11.032;2024-01-06T12:53:30;15.00;;;8.80;;
84284;SDS011;74441;49.470;11.032;2024-01-06T12:55:55;6.97;;;5.17;;
84284;SDS011;74441;49.470;11.032;2024-01-06T12:58:21;7.37;;;5.00;;
84284;SDS011;74441;49.470;11.032;2024-01-06T13:00:46;6.35;;;4.20;;
84284;SDS011;74441;49.470;11.032;2024-01-06T13:03:12;6.90;;;4.90;;
84284;SDS011;74441;49.470;11.032;2024-01-06T13:05:39;6.63;;;4.70;;
84284;SDS011;74441;49.470;11.032;2024-01-06T13:08:04;6.43;;;4.70;;
84284;SDS011;74441;49.470;11.032;2024-01-06T13:10:30;5.40;;;4.32;;
84284;SDS011;74441;49.470;11.032;2024-01-06T13:12:55;5.80;;;4.00;;
84284;SDS011;74441;49.470;11.032;2024-01-06T13:15:21;6.60;;;4.90;;
84284;SDS011;74441;49.470;11.032;2024-01-06T13:17:46;5.38;;;4.60;;
84284;SDS011;74441;49.470;11.032;2024-01-06T13:20:12;6.80;;;5.25;;
84284;SDS011;74441;49.470;11.032;2024-01-06T13:22:37;4.47;;;3.95;;
84284;SDS011;74441;49.470;11.032;2024-01-06T13:25:02;4.90;;;4.17;;
84284;SDS011;74441;49.470;11.032;2024-01-06T13:27:28;5.28;;;4.22;;
84284;SDS011;74441;49.470;11.032;2024-01-06T13:29:53;5.68;;;4.07;;
84284;SDS011;74441;49.470;11.032;2024-01-06T13:32:19;6.82;;;5.80;;
84284;SDS011;74441;49.470;11.032;2024-01-06T13:34:46;5.30;;;4.63;;
84284;SDS011;74441;49.470;11.032;2024-01-06T13:37:12;6.60;;;4.55;;
84284;SDS011;74441;49.470;11.032;2024-01-06T13:39:37;6.00;;;4.70;;
84284;SDS011;74441;49.470;11.032;2024-01-06T13:42:03;5.43;;;4.50;;
84284;SDS011;74441;49.470;11.032;2024-01-06T13:44:28;6.68;;;5.28;;
84284;SDS011;74441;49.470;11.032;2024-01-06T13:46:54;5.70;;;4.60;;
84284;SDS011;74441;49.470;11.032;2024-01-06T13:49:19;5.50;;;4.57;;
84284;SDS011;74441;49.470;11.032;2024-01-06T13:51:45;7.85;;;6.13;;
84284;SDS011;74441;49.470;11.032;2024-01-06T13:54:11;6.53;;;5.22;;
84284;SDS011;74441;49.470;11.032;2024-01-06T13:56:36;8.27;;;5.80;;
84284;SDS011;74441;49.470;11.032;2024-01-06T13:59:02;6.90;;;5.03;;
84284;SDS011;74441;49.470;11.032;2024-01-06T14:01:27;6.55;;;4.95;;
84284;SDS011;74441;49.470;11.032;2024-01-06T14:03:53;6.00;;;5.22;;
84284;SDS011;74441;49.470;11.032;2024-01-06T14:06:23;7.95;;;6.03;;
84284;SDS011;74441;49.470;11.032;2024-01-06T14:08:50;6.10;;;4.45;;
84284;SDS011;74441;49.470;11.032;2024-01-06T14:11:17;6.20;;;4.65;;
84284;SDS011;74441;49.470;11.032;2024-01-06T14:13:43;6.72;;;5.28;;
84284;SDS011;74441;49.470;11.032;2024-01-06T14:16:08;6.25;;;5.15;;
84284;SDS011;74441;49.470;11.032;2024-01-06T14:18:33;6.03;;;4.37;;
84284;SDS011;74441;49.470;11.032;2024-01-06T14:20:59;4.60;;;3.95;;
84284;SDS011;74441;49.470;11.032;2024-01-06T14:23:24;6.40;;;4.50;;
84284;SDS011;74441;49.470;11.032;2024-01-06T14:25:49;5.23;;;3.87;;
84284;SDS011;74441;49.470;11.032;2024-01-06T14:28:15;4.70;;;3.75;;
84284;SDS011;74441;49.470;11.032;2024-01-06T14:30:40;5.85;;;4.22;;
84284;SDS011;74441;49.470;11.032;2024-01-06T14:33:05;4.47;;;4.00;;